Kalkaska, Michigan
Current Conditions -  °F | °C
As of 7:17 PM on Friday 21 Nov 2014 (Local Time) from KACB Reporting Station
Clear Clear  
Wind Chill: 17°   Ceiling: Unl
Heat Index: 27°   Visibility: 10mi
Dew Point: 17°   Wind: 9mph
Humidity: 68%   Direction: 190°S
Pressure: 30.23"   Gusts: 16mph
Location:  44.73°N, 85.18°W
Report Text: KACB 220017Z AUTO 19008G14KT 10SM CLR M03/M08 A3023 RMK AO2 T10301081
Loading
Personal Weather Stations






























Interactive Weather Map New forecast layout! Learn more

10-Day Weather Forecast

Advertisements
Track Severe Weather on mobile